Thursday, July 24, 2014, 1:42 PM EDT

KMDT, Harrisburg International Airport

Location: Middletown, PA, United States Lat: 40.2
Local Time: 1:42 PM EDT (17:42 GMT) Lon: -76.767
Time Zone: US/Eastern Elev: 308 ft

Show me the last for .
Show Decoded

2014-07-24 12:56 METAR KMDT 241656Z 32009KT 10SM SCT048 26/14 A2992 =
2014-07-24 11:56 METAR KMDT 241556Z 36009KT 10SM SCT043 25/14 A2993 RMK AO2 SLP134 T02500139 =
2014-07-24 10:56 METAR KMDT 241456Z 33006KT 10SM BKN035 BKN043 23/15 A2994 =
2014-07-24 09:56 METAR KMDT 241356Z 36007KT 10SM FEW028 23/15 A2993 RMK AO2 SLP132 T02280150 =
2014-07-24 08:56 METAR KMDT 241256Z 34010KT 10SM SCT050 22/15 A2992 =
2014-07-24 07:56 METAR KMDT 241156Z 34008KT 10SM FEW049 21/15 A2992 =
2014-07-24 06:56 METAR KMDT 241056Z 34006KT 10SM FEW049 21/15 A2990 =
2014-07-24 05:56 METAR KMDT 240956Z 34006KT 10SM OVC043 22/15 A2990 =
2014-07-24 04:56 METAR KMDT 240856Z 34006KT 10SM OVC040 22/15 A2989 =
2014-07-24 03:56 METAR KMDT 240756Z 33007KT 10SM OVC039 23/15 A2987 RMK AO2 SLP114 T02280150 =
2014-07-24 02:56 METAR KMDT 240656Z 33009KT 10SM SCT040 BKN055 OVC160 23/17 A2987 RMK AO2 SLP112
                 T02330172 =
2014-07-24 01:56 METAR KMDT 240556Z 34006KT 10SM OVC040 24/18 A2987 =
2014-07-24 00:56 METAR KMDT 240456Z 34009KT 10SM SCT035 BKN050 24/19 A2987 RMK AO2 SLP113
                 T02440194 403440222 =
2014-07-23 23:56 METAR KMDT 240356Z 33004KT 8SM FEW060 FEW100 SCT250 23/21 A2986 =
2014-07-23 22:56 METAR KMDT 240256Z 10004KT 8SM FEW045 SCT100 BKN250 23/21 A2986 =
2014-07-23 21:56 METAR KMDT 240156Z 08003KT 9SM SCT050 SCT100 BKN140 BKN250 24/21 A2986 =
2014-07-23 20:56 METAR KMDT 240056Z 00000KT 10SM SCT050 BKN160 BKN220 25/21 A2986 RMK AO2 SLP109
                 T02500211 =
2014-07-23 19:56 METAR KMDT 232356Z VRB03KT 10SM SCT050 BKN150 BKN220 26/21 A2983 =
2014-07-23 19:27 METAR KMDT 232327Z VRB03KT 9SM SCT050 BKN150 BKN220 26/22 A2983 RMK AO2 TSB02E27
                 TS MOVD E CB DSNT NE-SE MOV E T02610222 =
2014-07-23 19:04 METAR KMDT 232304Z VRB06KT 10SM TS SCT050CB SCT100 BKN180 BKN250 27/22 A2981 RMK
                 AO2 TSB02 OCNL LTGIC NW-N TS NW-N MOV E CB DSNT SE-S MOV E T02670222 =
2014-07-23 19:02 METAR KMDT 232302Z 19007KT 10SM TS SCT050CB SCT100 BKN180 BKN250 27/22 A2981 =
2014-07-23 18:56 METAR KMDT 232256Z VRB06KT 9SM SCT050CB SCT100 BKN180 OVC250 26/22 A2981 RMK AO2
                 RAB03E41 TSE51 SLP091 TS MOVD E CB NW-N MOV E CB DSNT E-S MOV E P0030 T02610222
                 =
2014-07-23 18:21 METAR KMDT 232221Z 18007KT 5SM R13/5500VP6000FT -TSRA BKN045CB BKN080 OVC250
                 25/22 A2979 RMK AO2 RAB03 PRESFR OCNL LTGICCG OHD-NE-SE TS OHD-NE-SE MOV E CB
                 DSNT SE-SW MOV E VIS E-SE 1 P0030 T02500217 =
2014-07-23 18:06 METAR KMDT 232206Z 23010G14KT 1 1/2SM R13/5000VP6000FT +TSRA BKN045 OVC100 26/23
                 A2981 =
2014-07-23 17:56 METAR KMDT 232156Z 14006KT 9SM TS BKN050CB BKN250 27/22 A2980 =
2014-07-23 17:41 METAR KMDT 232141Z 23003KT 9SM TS BKN055CB BKN130 BKN250 27/21 A2978 RMK AO2
                 WSHFT 2045 RAE06 FRQ LTGICCG VC E-S TS VC E-S MOV E TCU NE AND W P0000 T02720211
                 =
2014-07-23 17:02 METAR KMDT 232102Z 36016G27KT 6SM -TSRA BKN050CB BKN100 OVC250 27/22 A2981 =
2014-07-23 16:56 METAR KMDT 232056Z 35014G27KT 4SM -TSRA BKN060CB BKN100 OVC250 26/22 A2981 =
2014-07-23 16:33 METAR KMDT 232033Z 20008KT 170V250 10SM TS BKN060CB BKN250 33/21 A2981 =
2014-07-23 15:56 METAR KMDT 231956Z VRB06KT 10SM SCT055TCU SCT250 34/22 A2981 =
2014-07-23 14:56 METAR KMDT 231856Z VRB05KT 10SM SCT055TCU SCT250 34/22 A2983 RMK AO2 SLP101 TCU
                 ALQDS CB DSNT N-NE MOV E T03390217 =
2014-07-23 13:56 METAR KMDT 231756Z VRB04KT 10SM SCT045 SCT060 33/22 A2986 =

Support USWX by starting your Amazon purchase here.